Albury, New South Wales

1:15 AM EST on July 24, 2014 (GMT +1000)
Albury (YMAY) Elev 541 ft | 36.07 °S, 146.96 °E | Change Station

Current weather conditions updated 15 minutes ago

Clear
Clear
37 °F
Feels Like 37 °F
N
0
Wind Variable Wind from North

Today is forecast to be nearly the same temperature as yesterday. Showers possible.

Today
High -- | Low -- °F
--% Chance of Precip.
Yesterday
High -- | Low -- °F
Precip. -- in
7:15 AM 5:22 PM
Waning Crescent, 10% visible
Pressure 30.09 in
Visibility -9999.0 miles
Clouds
Dew Point 37 °F
Humidity 100%
Rainfall 0.00 in
Snow Depth Not available.
UV Not available.
Pollen Not available.
Air Quality Not available.
Flu Activity Not available.
SPECI YMAY 231500Z AUTO 00000KT 4400 // NCD 03/03 Q1019

More Conditions Fewer Conditions

Pressure 30.09 in
Visibility -9999.0 miles
Clouds
Dew Point 37 °F
Humidity 100%
Rainfall 0.00 in
Snow Depth Not available.
UV Not available.
Pollen Not available.
Air Quality Not available.
Flu Activity Not available.
SPECI YMAY 231500Z AUTO 00000KT 4400 // NCD 03/03 Q1019

More Conditions Fewer Conditions

10-Day Weather Forecast

Almanac

Astronomy

Jul. 24, 2014 Rise Set
Actual Time 7:15 AM EST 5:22 PM EST
Civil Twilight 6:47 AM EST 5:49 PM EST
Nautical Twilight 6:16 AM EST 6:21 PM EST
Astronomical Twilight 5:46 AM EST 6:51 PM EST
Moon 4:47 AM EST (7/24) 3:11 PM EST (7/24)
Length of Visible Light 11h 02m
Length of Day
10h 06m
Tomorrow will be 1m 25s longer.
Waning Crescent, 10% of the Moon is Illuminated
Jul 23
Waning Crescent
Jul 26
New
Aug 3
First Quarter
Aug 10
Full
Aug 17
Last Quarter

Yesterday's Extremes

Country Highs Country Lows

Community

WunderPhotos

Upload Photos

1,736,622 photos uploaded!

Nearby

Snow Depth

Not available.

Earthquake Activity

City Distance Mag. Time & Date
No recent earthquake activity has been reported nearby.
Minimum magnitude displayed is 2.5.

Coastal Water Temperatures

Place Temperature
No Stations Reporting

Nearby Weather Stations

Station Location Temp. Windchill Dew Point Humidity Wind Precip. Elev Updated Type
Albury 40.3 °F 40 °F 38 °F 93% NNW  at  0.0 mph 0.00 in / hr 650 ft 1:15 AM EST Normal
Albury/Wodonga, Lavington 41.5 °F 42 °F 42 °F 100% East  at  0.0 mph - / hr 1050 ft 1:10 AM EST Normal
Wodonga Weather, Wodonga 38.3 °F 38 °F 35 °F 89% SSW  at  0.7 mph 0.00 in / hr 541 ft 1:15 AM EST Rapid Fire
Federation Park, West Wodonga 42.1 °F 42 °F 40 °F 91% NE  at  0.0 mph 0.00 in / hr 646 ft 1:15 AM EST Rapid Fire
Wodonga, Wodonga 35.3 °F 35 °F 34 °F 95% West  at  0.0 mph 0.00 in / hr 636 ft 1:10 AM EST Normal
Greater Hume Shire / Riverina, Brocklesby 45.3 °F 45 °F 40 °F 82% North  at  0.0 mph 0.00 in / hr 581 ft 1:15 AM EST Rapid Fire

Show More Stations Show Fewer Stations